createdAt,value
2022-12-29T00:00:20.088Z,7.47
2022-12-29T00:01:19.998Z,7.42
2022-12-29T00:02:20.029Z,7.47
2022-12-29T00:03:20.083Z,7.50
2022-12-29T00:04:20.035Z,7.45
2022-12-29T00:05:19.948Z,7.44
2022-12-29T00:06:19.928Z,7.47
2022-12-29T00:07:19.935Z,7.49
2022-12-29T00:08:19.923Z,7.50
2022-12-29T00:09:19.915Z,7.50
2022-12-29T00:10:19.916Z,7.50
2022-12-29T00:11:19.956Z,7.47
2022-12-29T00:12:19.877Z,7.45
2022-12-29T00:13:19.842Z,7.50
2022-12-29T00:14:25.726Z,7.47
2022-12-29T00:15:19.855Z,7.47
2022-12-29T00:16:20.028Z,7.50
2022-12-29T00:17:19.829Z,7.50
2022-12-29T00:18:19.801Z,7.55
2022-12-29T00:19:19.788Z,7.58
2022-12-29T00:20:19.812Z,7.60
2022-12-29T00:21:19.781Z,7.58
2022-12-29T00:22:19.761Z,7.62
2022-12-29T00:23:19.744Z,7.60
2022-12-29T00:24:19.767Z,7.60
2022-12-29T00:25:19.730Z,7.60
2022-12-29T00:26:19.708Z,7.59
2022-12-29T00:27:19.722Z,7.60
2022-12-29T00:28:19.701Z,7.59
2022-12-29T00:29:19.681Z,7.59
2022-12-29T00:30:19.685Z,7.62
2022-12-29T00:31:19.854Z,7.63
2022-12-29T00:32:19.676Z,7.63
2022-12-29T00:33:19.656Z,7.71
2022-12-29T00:34:19.638Z,7.71
2022-12-29T00:35:19.641Z,7.77
2022-12-29T00:36:19.612Z,7.77
2022-12-29T00:37:19.640Z,7.77
2022-12-29T00:38:19.599Z,7.78
2022-12-29T00:39:19.590Z,7.78
2022-12-29T00:40:19.607Z,7.75
2022-12-29T00:41:19.550Z,7.77
2022-12-29T00:42:19.540Z,7.79
2022-12-29T00:43:19.531Z,7.74
2022-12-29T00:44:19.529Z,7.74
2022-12-29T00:45:19.531Z,7.75
2022-12-29T00:46:20.308Z,7.72
2022-12-29T00:47:19.471Z,7.75
2022-12-29T00:48:19.482Z,7.71
2022-12-29T00:49:19.487Z,7.69
2022-12-29T00:50:19.482Z,7.72
2022-12-29T00:51:19.451Z,7.69
2022-12-29T00:52:19.452Z,7.67
2022-12-29T00:53:19.420Z,7.67
2022-12-29T00:54:19.417Z,7.69
2022-12-29T00:55:19.421Z,7.75
2022-12-29T00:56:19.421Z,7.74
2022-12-29T00:57:19.394Z,7.74
2022-12-29T00:58:19.374Z,7.71
2022-12-29T00:59:19.359Z,7.69
2022-12-29T01:00:19.342Z,7.71
2022-12-29T01:01:19.525Z,7.71
2022-12-29T01:02:19.564Z,7.71
2022-12-29T01:03:19.393Z,7.69
2022-12-29T01:04:19.302Z,7.63
2022-12-29T01:05:19.279Z,7.62
2022-12-29T01:06:19.323Z,7.66
2022-12-29T01:07:19.302Z,7.66
2022-12-29T01:08:19.257Z,7.66
2022-12-29T01:09:19.242Z,7.69
2022-12-29T01:10:19.244Z,7.63
2022-12-29T01:11:19.246Z,7.63
2022-12-29T01:12:19.202Z,7.62
2022-12-29T01:13:19.205Z,7.67
2022-12-29T01:14:19.201Z,7.63
2022-12-29T01:15:19.180Z,7.62
2022-12-29T01:16:19.233Z,7.60
2022-12-29T01:17:19.161Z,7.63
2022-12-29T01:18:19.159Z,7.58
2022-12-29T01:19:19.170Z,7.59
2022-12-29T01:20:19.151Z,7.58
2022-12-29T01:21:19.122Z,7.58
2022-12-29T01:22:19.125Z,7.53
2022-12-29T01:23:19.087Z,7.56
2022-12-29T01:24:19.089Z,7.52
2022-12-29T01:25:19.070Z,7.53
2022-12-29T01:26:19.091Z,7.58
2022-12-29T01:27:20.692Z,7.58
2022-12-29T01:28:25.673Z,7.60
2022-12-29T01:29:19.038Z,7.56
2022-12-29T01:30:19.028Z,7.62
2022-12-29T01:31:19.054Z,7.56
2022-12-29T01:32:18.997Z,7.66
2022-12-29T01:33:19.021Z,7.62
2022-12-29T01:34:18.963Z,7.63
2022-12-29T01:35:18.972Z,7.69
2022-12-29T01:36:18.962Z,7.75
2022-12-29T01:37:18.954Z,7.77
2022-12-29T01:38:18.926Z,7.77
2022-12-29T01:39:18.923Z,7.77
2022-12-29T01:40:18.909Z,7.75
2022-12-29T01:41:18.908Z,7.77
2022-12-29T01:42:18.915Z,7.74
2022-12-29T01:43:18.905Z,7.67
2022-12-29T01:44:18.865Z,7.69
2022-12-29T01:45:18.844Z,7.66
2022-12-29T01:46:18.897Z,7.69
2022-12-29T01:47:18.854Z,7.60
2022-12-29T01:48:18.812Z,7.63
2022-12-29T01:49:18.824Z,7.58
2022-12-29T01:50:18.803Z,7.62
2022-12-29T01:51:18.806Z,7.59
2022-12-29T01:52:18.778Z,7.56
2022-12-29T01:53:18.788Z,7.58
2022-12-29T01:54:18.763Z,7.62
2022-12-29T01:55:18.735Z,7.59
2022-12-29T01:56:18.738Z,7.52
2022-12-29T01:57:18.719Z,7.50
2022-12-29T01:58:18.720Z,7.50
2022-12-29T01:59:18.703Z,7.50
2022-12-29T02:00:18.696Z,7.49
2022-12-29T02:01:18.832Z,7.49
2022-12-29T02:02:18.769Z,7.47
2022-12-29T02:03:18.723Z,7.44
2022-12-29T02:04:18.685Z,7.47
2022-12-29T02:05:18.635Z,7.44
2022-12-29T02:06:18.640Z,7.44
2022-12-29T02:07:18.614Z,7.44
2022-12-29T02:08:18.598Z,7.45
2022-12-29T02:09:18.589Z,7.52
2022-12-29T02:10:18.595Z,7.56
2022-12-29T02:11:18.584Z,7.55
2022-12-29T02:12:18.569Z,7.56
2022-12-29T02:13:18.569Z,7.56
2022-12-29T02:14:18.536Z,7.56
2022-12-29T02:15:18.585Z,7.58
2022-12-29T02:16:18.568Z,7.60
2022-12-29T02:17:18.521Z,7.67
2022-12-29T02:20:38.704Z,7.66
2022-12-29T02:21:39.666Z,7.71
2022-12-29T02:22:39.671Z,7.75
2022-12-29T02:23:39.663Z,7.72
2022-12-29T02:24:39.646Z,7.74
2022-12-29T02:25:39.660Z,7.74
2022-12-29T02:26:39.624Z,7.75
2022-12-29T02:27:39.627Z,7.72
2022-12-29T02:28:39.615Z,7.77
2022-12-29T02:29:39.609Z,7.77
2022-12-29T02:30:39.595Z,7.78
2022-12-29T02:31:39.612Z,7.77
2022-12-29T02:32:39.584Z,7.81
2022-12-29T02:33:39.529Z,7.85
2022-12-29T02:34:39.591Z,7.87
2022-12-29T02:35:39.513Z,7.92
2022-12-29T02:36:39.501Z,7.94
2022-12-29T02:37:39.504Z,7.93
2022-12-29T02:38:39.483Z,7.92
2022-12-29T02:39:39.484Z,7.85
2022-12-29T02:40:39.474Z,7.97
2022-12-29T02:41:39.459Z,8.03
2022-12-29T02:42:39.462Z,8.04
2022-12-29T02:43:39.429Z,8.00
2022-12-29T02:44:39.427Z,8.08
2022-12-29T02:45:39.446Z,8.03
2022-12-29T02:46:39.410Z,8.07
2022-12-29T02:47:39.410Z,8.12
2022-12-29T02:48:39.378Z,8.14
2022-12-29T02:49:39.384Z,8.12
2022-12-29T02:50:39.367Z,8.18
2022-12-29T02:51:39.376Z,8.18
2022-12-29T02:52:39.372Z,8.17
2022-12-29T02:53:39.310Z,8.18
2022-12-29T02:54:39.360Z,8.22
2022-12-29T02:55:39.284Z,8.21
2022-12-29T02:56:39.293Z,8.32
2022-12-29T02:57:39.294Z,8.32
2022-12-29T02:58:39.309Z,8.33
2022-12-29T02:59:39.255Z,8.40
2022-12-29T03:00:39.251Z,8.30
2022-12-29T03:01:39.390Z,8.45
2022-12-29T03:02:39.502Z,8.45
2022-12-29T03:03:39.235Z,8.47
2022-12-29T03:04:39.203Z,8.53
2022-12-29T03:05:39.219Z,8.51
2022-12-29T03:06:39.204Z,8.50
2022-12-29T03:07:39.172Z,8.48
2022-12-29T03:08:39.175Z,8.48
2022-12-29T03:09:39.149Z,8.53
2022-12-29T03:10:39.142Z,8.50
2022-12-29T03:11:39.136Z,8.51
2022-12-29T03:12:39.107Z,8.63
2022-12-29T03:13:39.120Z,8.58
2022-12-29T03:14:39.109Z,8.65
2022-12-29T03:15:39.106Z,8.66
2022-12-29T03:16:39.149Z,8.58
2022-12-29T03:17:39.076Z,8.62
2022-12-29T03:18:39.062Z,8.65
2022-12-29T03:19:39.048Z,8.62
2022-12-29T03:20:39.069Z,8.60
2022-12-29T03:21:39.033Z,8.65
2022-12-29T03:22:39.022Z,8.65
2022-12-29T03:23:39.008Z,8.60
2022-12-29T03:24:39.013Z,8.63
2022-12-29T03:25:38.984Z,8.58
2022-12-29T03:26:38.963Z,8.55
2022-12-29T03:27:38.957Z,8.57
2022-12-29T03:28:38.968Z,8.55
2022-12-29T03:29:38.947Z,8.58
2022-12-29T03:30:39.064Z,8.60
2022-12-29T03:31:38.922Z,8.66
2022-12-29T03:32:38.912Z,8.65
2022-12-29T03:33:38.923Z,8.63
2022-12-29T03:34:38.896Z,8.58
2022-12-29T03:35:38.867Z,8.58
2022-12-29T03:36:38.853Z,8.60
2022-12-29T03:37:38.873Z,8.57
2022-12-29T03:38:38.840Z,8.60
2022-12-29T03:39:38.855Z,8.66
2022-12-29T03:40:38.844Z,8.68
2022-12-29T03:41:38.785Z,8.68
2022-12-29T03:42:38.808Z,8.71
2022-12-29T03:43:38.803Z,8.65
2022-12-29T03:44:38.780Z,8.68
2022-12-29T03:45:38.765Z,8.63
2022-12-29T03:46:38.914Z,8.63
2022-12-29T03:47:38.774Z,8.66
2022-12-29T03:48:38.742Z,8.62
2022-12-29T03:49:38.723Z,8.69
2022-12-29T03:50:38.716Z,8.66
2022-12-29T03:51:38.709Z,8.66
2022-12-29T03:52:38.693Z,8.65
2022-12-29T03:53:38.675Z,8.75
2022-12-29T03:54:38.655Z,8.75
2022-12-29T03:55:38.704Z,8.73
2022-12-29T03:56:38.787Z,8.78
2022-12-29T03:57:38.630Z,8.73
2022-12-29T03:58:38.633Z,8.73
2022-12-29T03:59:38.597Z,8.73
2022-12-29T04:00:38.605Z,8.76
2022-12-29T04:01:38.723Z,8.73
2022-12-29T04:02:38.771Z,8.81
2022-12-29T04:03:38.650Z,8.81
2022-12-29T04:04:38.541Z,8.83
2022-12-29T04:05:38.552Z,8.83
2022-12-29T04:06:38.535Z,8.81
2022-12-29T04:07:38.543Z,8.83
2022-12-29T04:08:38.537Z,8.79
2022-12-29T04:09:38.523Z,8.88
2022-12-29T04:10:38.565Z,8.81
2022-12-29T04:11:38.520Z,8.88
2022-12-29T04:12:38.479Z,8.83
2022-12-29T04:13:38.470Z,8.83
2022-12-29T04:14:38.452Z,8.90
2022-12-29T04:15:38.538Z,8.84
2022-12-29T04:16:38.435Z,8.88
2022-12-29T04:17:38.425Z,8.91
2022-12-29T04:18:38.425Z,8.91
2022-12-29T04:19:38.388Z,8.93
2022-12-29T04:20:38.406Z,8.94
2022-12-29T04:21:38.373Z,8.93
2022-12-29T04:22:38.353Z,8.91
2022-12-29T04:23:38.352Z,8.96
2022-12-29T04:24:38.364Z,8.94
2022-12-29T04:25:38.348Z,8.94
2022-12-29T04:26:38.336Z,8.96
2022-12-29T04:27:38.300Z,8.97
2022-12-29T04:28:38.328Z,8.96
2022-12-29T04:29:38.283Z,8.97
2022-12-29T04:30:38.313Z,8.99
2022-12-29T04:31:38.328Z,8.94
2022-12-29T04:32:39.129Z,9.04
2022-12-29T04:33:38.256Z,9.01
2022-12-29T04:34:38.244Z,9.05
2022-12-29T04:35:38.242Z,9.04
2022-12-29T04:36:38.233Z,9.09
2022-12-29T04:37:38.231Z,9.09
2022-12-29T04:38:38.186Z,9.05
2022-12-29T04:39:38.167Z,9.09
2022-12-29T04:40:38.164Z,9.09
2022-12-29T04:41:38.176Z,9.04
2022-12-29T04:42:38.143Z,9.05
2022-12-29T04:43:38.137Z,9.05
2022-12-29T04:44:44.743Z,9.05
2022-12-29T04:45:38.128Z,9.06
2022-12-29T04:46:38.162Z,9.18
2022-12-29T04:47:38.092Z,9.12
2022-12-29T04:48:38.080Z,9.20
2022-12-29T04:49:38.108Z,9.12
2022-12-29T04:50:38.094Z,9.09
2022-12-29T04:51:38.069Z,9.12
2022-12-29T04:52:38.041Z,9.05
2022-12-29T04:53:38.028Z,9.10
2022-12-29T04:54:38.016Z,9.10
2022-12-29T04:55:38.028Z,9.10
2022-12-29T04:56:38.020Z,9.09
2022-12-29T04:57:38.059Z,9.12
2022-12-29T04:58:37.976Z,9.12
2022-12-29T04:59:37.968Z,9.13
2022-12-29T05:00:37.958Z,9.16
2022-12-29T05:01:38.015Z,9.15
2022-12-29T05:02:38.229Z,9.12
2022-12-29T05:03:37.983Z,9.12
2022-12-29T05:04:37.927Z,9.15
2022-12-29T05:05:37.918Z,9.15
2022-12-29T05:06:37.899Z,9.16
2022-12-29T05:07:37.886Z,9.20
2022-12-29T05:08:37.890Z,9.20
2022-12-29T05:09:37.863Z,9.16
2022-12-29T05:10:37.875Z,9.18
2022-12-29T05:11:37.844Z,9.21
2022-12-29T05:12:37.902Z,9.20
2022-12-29T05:13:37.817Z,9.21
2022-12-29T05:14:37.794Z,9.21
2022-12-29T05:15:37.795Z,9.23
2022-12-29T05:16:37.855Z,9.27
2022-12-29T05:17:37.892Z,9.27
2022-12-29T05:18:37.758Z,9.27
2022-12-29T05:19:37.747Z,9.24
2022-12-29T05:20:37.729Z,9.24
2022-12-29T05:21:37.738Z,9.24
2022-12-29T05:22:37.721Z,9.24
2022-12-29T05:23:37.707Z,9.25
2022-12-29T05:24:37.705Z,9.25
2022-12-29T05:25:37.696Z,9.30
2022-12-29T05:26:37.683Z,9.25
2022-12-29T05:27:37.660Z,9.28
2022-12-29T05:28:37.690Z,9.27
2022-12-29T05:29:37.642Z,9.31
2022-12-29T05:30:37.619Z,9.32
2022-12-29T05:31:37.725Z,9.30
2022-12-29T05:32:37.601Z,9.32
2022-12-29T05:33:37.596Z,9.30
2022-12-29T05:34:37.575Z,9.34
2022-12-29T05:35:37.576Z,9.34
2022-12-29T05:36:38.354Z,9.35
2022-12-29T05:37:37.547Z,9.34
2022-12-29T05:38:37.548Z,9.34
2022-12-29T05:39:37.532Z,9.35
2022-12-29T05:40:37.513Z,9.42
2022-12-29T05:41:37.523Z,9.45
2022-12-29T05:42:37.504Z,9.45
2022-12-29T05:43:37.497Z,9.49
2022-12-29T05:44:37.488Z,9.46
2022-12-29T05:45:37.470Z,9.48
2022-12-29T05:46:37.552Z,9.46
2022-12-29T05:47:37.441Z,9.50
2022-12-29T05:48:38.240Z,9.50
2022-12-29T05:49:37.434Z,9.58
2022-12-29T05:50:37.409Z,9.52
2022-12-29T05:51:37.413Z,9.56
2022-12-29T05:52:37.388Z,9.58
2022-12-29T05:53:37.370Z,9.56
2022-12-29T05:54:37.351Z,9.60
2022-12-29T05:55:37.367Z,9.63
2022-12-29T05:56:37.353Z,9.75
2022-12-29T05:57:37.338Z,9.81
2022-12-29T05:58:37.321Z,9.75
2022-12-29T05:59:37.307Z,9.76
2022-12-29T06:00:37.294Z,9.75
2022-12-29T06:01:37.385Z,9.71
2022-12-29T06:02:37.481Z,9.70
2022-12-29T06:03:38.294Z,9.76
2022-12-29T06:04:37.247Z,9.75
2022-12-29T06:05:37.252Z,9.76
2022-12-29T06:06:37.227Z,9.78
2022-12-29T06:07:37.249Z,9.73
2022-12-29T06:08:37.209Z,9.73
2022-12-29T06:09:37.203Z,9.78
2022-12-29T06:10:37.181Z,9.82
2022-12-29T06:11:37.182Z,9.86
2022-12-29T06:12:37.173Z,9.88
2022-12-29T06:13:37.171Z,9.89
2022-12-29T06:14:37.155Z,9.88
2022-12-29T06:15:37.201Z,9.86
2022-12-29T06:16:37.229Z,9.88
2022-12-29T06:17:37.122Z,9.88
2022-12-29T06:18:37.257Z,9.88
2022-12-29T06:19:37.115Z,9.93
2022-12-29T06:20:37.095Z,9.93
2022-12-29T06:21:37.076Z,9.91
2022-12-29T06:22:37.082Z,9.91
2022-12-29T06:23:37.071Z,9.88
2022-12-29T06:24:37.056Z,9.89
2022-12-29T06:25:37.052Z,9.89
2022-12-29T06:26:37.012Z,9.85
2022-12-29T06:27:37.019Z,9.83
2022-12-29T06:28:36.998Z,9.88
2022-12-29T06:29:36.993Z,9.83
2022-12-29T06:30:36.988Z,9.85
2022-12-29T06:31:37.093Z,9.89
2022-12-29T06:32:36.948Z,9.93
2022-12-29T06:33:36.959Z,9.91
2022-12-29T06:34:36.936Z,9.91
2022-12-29T06:35:36.928Z,9.89
2022-12-29T06:36:36.904Z,9.96
2022-12-29T06:37:36.904Z,9.93
2022-12-29T06:38:36.891Z,9.93
2022-12-29T06:39:36.869Z,9.97
2022-12-29T06:40:36.876Z,9.97
2022-12-29T06:41:36.847Z,9.97
2022-12-29T06:42:36.853Z,10.00
2022-12-29T06:43:36.848Z,10.04
2022-12-29T06:44:36.765Z,10.00
2022-12-29T06:45:36.815Z,10.01
2022-12-29T06:46:36.746Z,10.01
2022-12-29T06:47:36.743Z,9.99
2022-12-29T06:48:36.724Z,10.01
2022-12-29T06:49:36.732Z,9.99
2022-12-29T06:50:36.764Z,10.00
2022-12-29T06:51:36.724Z,9.97
2022-12-29T06:52:36.691Z,10.00
2022-12-29T06:53:36.685Z,10.01
2022-12-29T06:54:36.666Z,10.03
2022-12-29T06:55:36.660Z,10.03
2022-12-29T06:56:36.649Z,10.03
2022-12-29T06:57:36.680Z,9.99
2022-12-29T06:58:36.665Z,9.97
2022-12-29T06:59:36.608Z,9.99
2022-12-29T07:00:36.605Z,9.96
2022-12-29T07:01:36.736Z,9.91
2022-12-29T07:02:36.694Z,9.99
2022-12-29T07:03:36.680Z,9.93
2022-12-29T07:04:36.556Z,9.89
2022-12-29T07:05:36.542Z,9.93
2022-12-29T07:06:36.533Z,9.93
2022-12-29T07:07:36.656Z,9.94
2022-12-29T07:08:36.522Z,9.89
2022-12-29T07:09:36.511Z,9.85
2022-12-29T07:10:36.490Z,9.86
2022-12-29T07:11:36.477Z,9.89
2022-12-29T07:12:36.466Z,9.83
2022-12-29T07:13:36.463Z,9.82
2022-12-29T07:14:42.639Z,9.86
2022-12-29T07:15:36.437Z,9.88
2022-12-29T07:16:36.467Z,9.89
2022-12-29T07:17:36.416Z,9.88
2022-12-29T07:18:36.441Z,9.83
2022-12-29T07:19:36.396Z,9.88
2022-12-29T07:20:36.385Z,9.83
2022-12-29T07:21:36.363Z,9.81
2022-12-29T07:22:36.361Z,9.81
2022-12-29T07:23:36.365Z,9.85
2022-12-29T07:24:36.337Z,9.83
2022-12-29T07:25:36.337Z,9.82
2022-12-29T07:26:36.682Z,9.83
2022-12-29T07:27:36.316Z,9.82
2022-12-29T07:28:36.313Z,9.79
2022-12-29T07:29:36.313Z,9.73
2022-12-29T07:30:36.298Z,9.81
2022-12-29T07:31:36.329Z,9.82
2022-12-29T07:32:36.254Z,9.82
2022-12-29T07:33:36.260Z,9.81
2022-12-29T07:34:36.226Z,9.86
2022-12-29T07:35:36.215Z,9.86
2022-12-29T07:36:36.230Z,9.88
2022-12-29T07:37:36.212Z,9.85
2022-12-29T07:38:36.200Z,9.82
2022-12-29T07:39:36.189Z,9.85
2022-12-29T07:40:36.159Z,9.88
2022-12-29T07:41:36.171Z,9.88
2022-12-29T07:42:36.146Z,9.89
2022-12-29T07:43:36.133Z,9.93
2022-12-29T07:44:36.122Z,9.94
2022-12-29T07:45:36.188Z,9.93
2022-12-29T07:46:56.410Z,9.96
2022-12-29T07:47:36.124Z,9.96
2022-12-29T07:48:36.074Z,9.96
2022-12-29T07:49:36.084Z,10.01
2022-12-29T07:50:36.103Z,10.04
2022-12-29T07:51:36.051Z,10.07
2022-12-29T07:52:36.029Z,10.10
2022-12-29T07:53:36.028Z,10.09
2022-12-29T07:54:36.015Z,10.10
2022-12-29T07:55:36.004Z,10.10
2022-12-29T07:56:35.995Z,10.12
2022-12-29T07:57:35.987Z,10.14
2022-12-29T07:58:35.968Z,10.10
2022-12-29T07:59:35.967Z,10.09
2022-12-29T08:00:35.950Z,10.10
2022-12-29T08:01:36.044Z,10.12
2022-12-29T08:02:35.962Z,10.17
2022-12-29T08:03:35.943Z,10.14
2022-12-29T08:04:35.922Z,10.17
2022-12-29T08:05:35.902Z,10.17
2022-12-29T08:06:35.901Z,10.19
2022-12-29T08:07:35.917Z,10.18
2022-12-29T08:08:35.895Z,10.15
2022-12-29T08:09:35.865Z,10.12
2022-12-29T08:10:35.836Z,10.09
2022-12-29T08:11:35.834Z,10.12
2022-12-29T08:12:35.820Z,10.10
2022-12-29T08:13:35.816Z,10.19
2022-12-29T08:14:35.808Z,10.19
2022-12-29T08:15:37.383Z,10.22
2022-12-29T08:16:35.864Z,10.24
2022-12-29T08:17:35.775Z,10.26
2022-12-29T08:18:35.778Z,10.21
2022-12-29T08:19:35.798Z,10.19
2022-12-29T08:20:35.729Z,10.22
2022-12-29T08:21:35.732Z,10.21
2022-12-29T08:22:35.760Z,10.22
2022-12-29T08:23:35.698Z,10.24
2022-12-29T08:24:35.706Z,10.22
2022-12-29T08:25:35.675Z,10.22
2022-12-29T08:26:35.667Z,10.22
2022-12-29T08:27:35.653Z,10.24
2022-12-29T08:28:35.655Z,10.26
2022-12-29T08:29:35.666Z,10.24
2022-12-29T08:30:35.614Z,10.22
2022-12-29T08:31:35.793Z,10.25
2022-12-29T08:32:35.634Z,10.25
2022-12-29T08:33:35.597Z,10.32
2022-12-29T08:34:35.589Z,10.24
2022-12-29T08:35:35.567Z,10.24
2022-12-29T08:36:35.621Z,10.19
2022-12-29T08:37:35.577Z,10.19
2022-12-29T08:38:35.571Z,10.24
2022-12-29T08:39:35.588Z,10.22
2022-12-29T08:40:35.516Z,10.25
2022-12-29T08:41:35.518Z,10.28
2022-12-29T08:42:35.498Z,10.26
2022-12-29T08:43:35.496Z,10.28
2022-12-29T08:44:35.474Z,10.28
2022-12-29T08:45:35.483Z,10.26
2022-12-29T08:46:35.523Z,10.24
2022-12-29T08:47:35.904Z,10.24
2022-12-29T08:48:35.439Z,10.26
2022-12-29T08:49:35.424Z,10.25
2022-12-29T08:50:35.423Z,10.26
2022-12-29T08:51:35.412Z,10.26
2022-12-29T08:52:35.400Z,10.26
2022-12-29T08:53:35.410Z,10.26
2022-12-29T08:54:35.370Z,10.26
2022-12-29T08:55:35.366Z,10.30
2022-12-29T08:56:35.349Z,10.24
2022-12-29T08:57:35.332Z,10.26
2022-12-29T08:58:35.327Z,10.22
2022-12-29T08:59:35.306Z,10.26
2022-12-29T09:00:35.309Z,10.26
2022-12-29T09:01:35.390Z,10.30
2022-12-29T09:02:35.405Z,10.33
2022-12-29T09:04:12.854Z,10.39
2022-12-29T09:04:35.395Z,10.42
2022-12-29T09:05:35.257Z,10.42
2022-12-29T09:06:40.262Z,10.42
2022-12-29T09:07:35.222Z,10.43
2022-12-29T09:08:35.208Z,10.43
2022-12-29T09:09:35.216Z,10.42
2022-12-29T09:10:35.200Z,10.44
2022-12-29T09:11:35.202Z,10.44
2022-12-29T09:12:36.750Z,10.44
2022-12-29T09:13:35.177Z,10.51
2022-12-29T09:14:35.148Z,10.44
2022-12-29T09:15:35.159Z,10.43
2022-12-29T09:16:35.248Z,10.51
2022-12-29T09:17:35.118Z,10.52
2022-12-29T09:18:35.115Z,10.53
2022-12-29T09:19:35.108Z,10.53
2022-12-29T09:20:35.101Z,10.60
2022-12-29T09:21:35.067Z,10.71
2022-12-29T09:22:35.079Z,10.86
2022-12-29T09:23:35.044Z,10.89
2022-12-29T09:24:35.056Z,10.98
2022-12-29T09:25:35.051Z,11.02
2022-12-29T09:26:35.038Z,11.09
2022-12-29T09:27:35.015Z,11.06
2022-12-29T09:28:35.035Z,11.09
2022-12-29T09:29:34.999Z,11.17
2022-12-29T09:30:34.994Z,11.19
2022-12-29T09:31:35.004Z,11.20
2022-12-29T09:32:39.114Z,11.13
2022-12-29T09:33:34.954Z,11.20
2022-12-29T09:34:34.934Z,11.24
2022-12-29T09:35:35.275Z,11.25
2022-12-29T09:36:34.925Z,11.19
2022-12-29T09:37:34.900Z,11.13
2022-12-29T09:38:34.906Z,11.09
2022-12-29T09:39:34.886Z,11.06
2022-12-29T09:40:34.885Z,11.07
2022-12-29T09:41:34.979Z,11.06
2022-12-29T09:42:34.856Z,11.01
2022-12-29T09:43:34.826Z,10.99
2022-12-29T09:44:34.834Z,10.99
2022-12-29T09:45:34.826Z,11.02
2022-12-29T09:46:34.832Z,10.99
2022-12-29T09:47:34.795Z,11.02
2022-12-29T09:48:34.792Z,11.16
2022-12-29T09:49:34.770Z,11.16
2022-12-29T09:50:34.772Z,11.14
2022-12-29T09:51:34.755Z,11.13
2022-12-29T09:52:35.658Z,11.13
2022-12-29T09:53:34.748Z,11.19
2022-12-29T09:54:34.744Z,11.24
2022-12-29T09:55:34.735Z,11.25
2022-12-29T09:56:34.712Z,11.31
2022-12-29T09:57:34.673Z,11.38
2022-12-29T09:58:34.676Z,11.32
2022-12-29T09:59:34.670Z,11.34
2022-12-29T10:00:34.680Z,11.34
2022-12-29T10:01:34.924Z,11.38
2022-12-29T10:02:34.783Z,11.44
2022-12-29T10:03:34.653Z,11.44
2022-12-29T10:04:34.629Z,11.46
2022-12-29T10:05:34.647Z,11.49
2022-12-29T10:06:36.163Z,11.46
2022-12-29T10:07:34.571Z,11.52
2022-12-29T10:08:34.592Z,11.52
2022-12-29T10:09:34.545Z,11.52
2022-12-29T10:10:34.610Z,11.52
2022-12-29T10:11:34.539Z,11.54
2022-12-29T10:12:34.528Z,11.72
2022-12-29T10:13:34.537Z,11.77
2022-12-29T10:14:34.502Z,11.75
2022-12-29T10:15:34.511Z,11.80
2022-12-29T10:16:34.598Z,11.77
2022-12-29T10:17:34.469Z,11.96
2022-12-29T10:18:34.468Z,12.23
2022-12-29T10:19:34.448Z,12.42
2022-12-29T10:20:34.435Z,12.34
2022-12-29T10:21:34.443Z,12.24
2022-12-29T10:22:34.429Z,12.27
2022-12-29T10:23:34.457Z,12.31
2022-12-29T10:24:34.399Z,12.44
2022-12-29T10:25:34.376Z,12.46
2022-12-29T10:26:34.395Z,12.64
2022-12-29T10:27:34.347Z,12.79
2022-12-29T10:28:34.373Z,12.84
2022-12-29T10:29:34.335Z,12.74
2022-12-29T10:30:34.338Z,12.59
2022-12-29T10:31:34.374Z,12.51
2022-12-29T10:32:34.321Z,12.51
2022-12-29T10:33:34.303Z,12.54
2022-12-29T10:34:34.398Z,12.54
2022-12-29T10:35:34.271Z,12.48
2022-12-29T10:36:34.270Z,12.49
2022-12-29T10:37:34.557Z,12.57
2022-12-29T10:38:34.270Z,12.57
2022-12-29T10:39:34.224Z,12.52
2022-12-29T10:40:34.223Z,12.63
2022-12-29T10:41:34.214Z,12.71
2022-12-29T10:42:34.221Z,12.78
2022-12-29T10:43:34.186Z,12.82
2022-12-29T10:44:34.222Z,12.88
2022-12-29T10:45:34.195Z,12.81
2022-12-29T10:46:34.167Z,12.74
2022-12-29T10:47:34.140Z,12.67
2022-12-29T10:48:34.175Z,12.66
2022-12-29T10:49:34.116Z,12.56
2022-12-29T10:50:34.131Z,12.62
2022-12-29T10:51:34.114Z,12.62
2022-12-29T10:52:34.098Z,12.56
2022-12-29T10:53:34.078Z,12.49
2022-12-29T10:54:34.080Z,12.44
2022-12-29T10:55:34.061Z,12.44
2022-12-29T10:56:34.059Z,12.38
2022-12-29T10:57:34.032Z,12.31
2022-12-29T10:58:34.021Z,12.26
2022-12-29T10:59:34.017Z,12.26
2022-12-29T11:00:34.155Z,12.26
2022-12-29T11:01:34.190Z,12.21
2022-12-29T11:02:34.103Z,12.21
2022-12-29T11:03:34.038Z,12.20
2022-12-29T11:04:33.959Z,12.16
2022-12-29T11:05:33.943Z,12.12
2022-12-29T11:06:33.965Z,12.11
2022-12-29T11:07:33.942Z,12.08
2022-12-29T11:08:33.922Z,12.11
2022-12-29T11:09:42.617Z,12.08
2022-12-29T11:10:33.947Z,12.08
2022-12-29T11:11:33.891Z,12.09
2022-12-29T11:12:33.925Z,12.11
2022-12-29T11:13:38.982Z,12.09
2022-12-29T11:14:33.863Z,12.08
2022-12-29T11:15:33.849Z,12.05
2022-12-29T11:16:33.987Z,12.05
2022-12-29T11:17:33.836Z,12.01
2022-12-29T11:18:33.805Z,11.97
2022-12-29T11:19:39.018Z,11.94
2022-12-29T11:20:33.816Z,11.93
2022-12-29T11:21:33.798Z,11.90
2022-12-29T11:22:34.787Z,11.89
2022-12-29T11:23:33.750Z,11.86
2022-12-29T11:24:33.755Z,11.82
2022-12-29T11:25:33.738Z,11.83
2022-12-29T11:26:34.680Z,11.80
2022-12-29T11:27:33.728Z,11.82
2022-12-29T11:28:33.695Z,11.77
2022-12-29T11:29:33.699Z,11.74
2022-12-29T11:30:33.738Z,11.72
2022-12-29T11:31:33.712Z,11.67
2022-12-29T11:32:33.682Z,11.64
2022-12-29T11:33:33.690Z,11.62
2022-12-29T11:34:33.662Z,11.61
2022-12-29T11:35:33.627Z,11.59
2022-12-29T11:36:33.620Z,11.56
2022-12-29T11:37:33.664Z,11.53
2022-12-29T11:38:33.600Z,11.49
2022-12-29T11:39:33.581Z,11.46
2022-12-29T11:40:33.580Z,11.44
2022-12-29T11:41:33.560Z,11.39
2022-12-29T11:42:33.572Z,11.32
2022-12-29T11:43:33.532Z,11.25
2022-12-29T11:44:33.536Z,11.25
2022-12-29T11:45:33.600Z,11.19
2022-12-29T11:46:33.632Z,11.19
2022-12-29T11:47:33.571Z,11.17
2022-12-29T11:48:33.521Z,11.16
2022-12-29T11:49:33.473Z,11.14
2022-12-29T11:50:33.460Z,11.11
2022-12-29T11:51:33.459Z,11.11
2022-12-29T11:52:33.454Z,11.07
2022-12-29T11:53:33.454Z,11.07
2022-12-29T11:54:33.461Z,11.10
2022-12-29T11:55:33.424Z,11.09
2022-12-29T11:56:39.925Z,11.07
2022-12-29T11:57:33.426Z,11.03
2022-12-29T11:58:33.491Z,11.01
2022-12-29T11:59:33.359Z,10.98
2022-12-29T12:00:33.379Z,10.92
2022-12-29T12:01:33.361Z,10.91
2022-12-29T12:02:38.834Z,10.86
2022-12-29T12:03:33.400Z,10.80
2022-12-29T12:04:33.324Z,10.68
2022-12-29T12:05:33.309Z,10.59
2022-12-29T12:06:33.298Z,10.43
2022-12-29T12:07:33.284Z,10.26
2022-12-29T12:08:33.278Z,10.15
2022-12-29T12:09:33.257Z,10.01
2022-12-29T12:10:33.262Z,9.97
2022-12-29T12:11:33.249Z,9.88
2022-12-29T12:12:33.237Z,9.82
2022-12-29T12:13:33.263Z,9.79
2022-12-29T12:14:33.202Z,9.71
2022-12-29T12:15:33.193Z,9.71
2022-12-29T12:16:33.204Z,9.68
2022-12-29T12:17:33.181Z,9.61
2022-12-29T12:18:33.174Z,9.63
2022-12-29T12:19:33.172Z,9.60
2022-12-29T12:20:33.166Z,9.66
2022-12-29T12:21:33.789Z,9.61
2022-12-29T12:22:33.115Z,9.60
2022-12-29T12:23:33.251Z,9.58
2022-12-29T12:24:33.108Z,9.61
2022-12-29T12:25:33.084Z,9.57
2022-12-29T12:26:33.074Z,9.57
2022-12-29T12:27:33.053Z,9.60
2022-12-29T12:28:36.598Z,9.64
2022-12-29T12:29:33.058Z,9.68
2022-12-29T12:30:33.030Z,9.60
2022-12-29T12:31:33.040Z,9.66
2022-12-29T12:32:33.020Z,9.57
2022-12-29T12:33:33.002Z,9.57
2022-12-29T12:34:33.023Z,9.56
2022-12-29T12:35:32.983Z,9.52
2022-12-29T12:36:32.967Z,9.49
2022-12-29T12:37:32.972Z,9.48
2022-12-29T12:38:32.955Z,9.48
2022-12-29T12:39:32.934Z,9.49
2022-12-29T12:40:32.927Z,9.46
2022-12-29T12:41:32.909Z,9.46
2022-12-29T12:42:32.905Z,9.45
2022-12-29T12:43:32.913Z,9.50
2022-12-29T12:44:32.890Z,9.43
2022-12-29T12:45:32.873Z,9.39
2022-12-29T12:46:32.967Z,9.43
2022-12-29T12:47:32.854Z,9.40
2022-12-29T12:48:32.858Z,9.39
2022-12-29T12:49:32.840Z,9.39
2022-12-29T12:50:32.830Z,9.35
2022-12-29T12:51:32.800Z,9.34
2022-12-29T12:52:32.804Z,9.30
2022-12-29T12:53:32.785Z,9.28
2022-12-29T12:54:32.774Z,9.25
2022-12-29T12:55:32.777Z,9.28
2022-12-29T12:56:32.773Z,9.32
2022-12-29T12:57:32.739Z,9.31
2022-12-29T12:58:32.741Z,9.31
2022-12-29T12:59:32.735Z,9.39
2022-12-29T13:00:32.707Z,9.42
2022-12-29T13:01:32.779Z,9.43
2022-12-29T13:02:32.966Z,9.45
2022-12-29T13:03:32.738Z,9.48
2022-12-29T13:04:32.693Z,9.49
2022-12-29T13:05:32.661Z,9.49
2022-12-29T13:06:32.666Z,9.53
2022-12-29T13:07:32.633Z,9.53
2022-12-29T13:08:32.657Z,9.48
2022-12-29T13:09:32.622Z,9.49
2022-12-29T13:10:32.621Z,9.49
2022-12-29T13:11:32.624Z,9.52